Terminal Aerodrome Forecast
Issued by NWS Quad Cities IA IL

Home | Current Version | Previous Version | Text Only | Print | Product List | Glossary On
Versions: 1 2 3 4 5 6 7 8 9 10 11 12 13 14 15 16 17 18 19 20 21
000
FTUS43 KDVN 200825 AAB
TAFDBQ
TAF AMD
KDBQ 200825Z 2008/2106 VRB05KT 4SM BR SCT003 OVC025
      TEMPO 2008/2011 1/2SM FG VV002
     FM201100 22004KT 2SM -SHRA BR OVC003
     FM201300 24005KT 1SM BR OVC002
     FM201600 26007KT 2SM -SHRA BR OVC005
     FM202000 30012KT 4SM BR OVC010
     FM202200 31015G22KT P6SM BKN020=

USA.gov is the U.S. government's official web portal to all federal, state and local government web resources and services.